Time;durP1;ratioP1;P1;durP2;ratioP2;P2;SDS_P1;SDS_P2;PMS_P1;PMS_P2;Temp;Humidity;BMP_temperature;BMP_pressure;BME280_temperature;BME280_humidity;BME280_pressure;Samples;Min_cycle;Max_cycle;Signal;HPM_P1;HPM_P2
2021/11/18 00:00:36;;;;;;;18.25;7.90;;;8.90;79.80;;;;;;4983060;28;20030;-78
2021/11/18 00:03:02;;;;;;;16.60;8.52;;;8.90;79.60;;;;;;5016699;28;20030;-78
2021/11/18 00:05:30;;;;;;;18.73;7.50;;;9.00;79.60;;;;;;4999232;28;20243;-78
2021/11/18 00:07:56;;;;;;;17.95;7.70;;;9.00;79.60;;;;;;4979945;28;20026;-79
2021/11/18 00:10:29;;;;;;;18.95;8.38;;;8.90;79.90;;;;;;4997167;28;20434;-79
2021/11/18 00:12:56;;;;;;;13.05;7.68;;;9.00;79.80;;;;;;4979852;28;20073;-79
2021/11/18 00:15:25;;;;;;;14.35;7.60;;;9.10;79.70;;;;;;4997139;28;20041;-78
2021/11/18 00:18:13;;;;;;;20.98;7.47;;;9.00;79.80;;;;;;4997391;28;20026;-78
2021/11/18 00:21:19;;;;;;;20.58;8.00;;;9.10;79.60;;;;;;4996685;28;20041;-79
2021/11/18 00:23:48;;;;;;;17.90;8.60;;;9.10;79.70;;;;;;4984446;28;20039;-78
2021/11/18 00:26:14;;;;;;;18.65;8.15;;;9.10;79.70;;;;;;4996808;28;20392;-78
2021/11/18 00:28:40;;;;;;;15.38;7.85;;;9.10;80.00;;;;;;4996848;28;20089;-78
2021/11/18 00:31:07;;;;;;;15.38;8.07;;;9.10;80.00;;;;;;4982898;28;20397;-78
2021/11/18 00:33:34;;;;;;;17.00;8.13;;;9.00;80.20;;;;;;5002722;28;20453;-79
2021/11/18 00:36:00;;;;;;;15.52;8.45;;;9.10;80.00;;;;;;4996870;28;20054;-78
2021/11/18 00:38:26;;;;;;;18.90;8.43;;;9.10;79.80;;;;;;4996795;28;20522;-78
2021/11/18 00:40:58;;;;;;;15.13;7.55;;;9.10;79.90;;;;;;4996782;28;20608;-78
2021/11/18 00:43:24;;;;;;;16.63;8.63;;;9.10;79.90;;;;;;4979212;28;20053;-78
2021/11/18 00:45:51;;;;;;;20.42;8.02;;;9.20;79.90;;;;;;5008395;28;20075;-79
2021/11/18 00:48:17;;;;;;;18.42;7.95;;;9.10;80.00;;;;;;5016374;28;20048;-79
2021/11/18 00:50:45;;;;;;;17.92;7.72;;;9.20;79.90;;;;;;4996625;28;20041;-79
2021/11/18 00:53:10;;;;;;;15.75;7.88;;;9.20;79.90;;;;;;4995357;28;20045;-79
2021/11/18 00:55:36;;;;;;;17.25;7.50;;;9.20;79.90;;;;;;4995373;28;20389;-78
2021/11/18 00:58:07;;;;;;;16.20;7.55;;;9.20;80.10;;;;;;4996423;28;20026;-75
2021/11/18 01:00:36;;;;;;;17.75;7.15;;;9.20;80.20;;;;;;4998820;28;20037;-78
2021/11/18 01:03:03;;;;;;;14.55;6.75;;;9.20;80.20;;;;;;5016103;28;20038;-78
2021/11/18 01:05:32;;;;;;;15.10;6.70;;;9.20;80.30;;;;;;5004928;28;20038;-78
2021/11/18 01:07:59;;;;;;;18.33;7.20;;;9.20;80.40;;;;;;4995933;28;20124;-79
2021/11/18 01:10:30;;;;;;;14.25;7.72;;;9.20;80.20;;;;;;4996504;28;20127;-79
2021/11/18 01:12:56;;;;;;;17.15;7.38;;;9.20;80.40;;;;;;4978988;28;20033;-78
2021/11/18 01:15:27;;;;;;;15.38;6.82;;;9.30;80.30;;;;;;4996156;28;20034;-77
2021/11/18 01:17:53;;;;;;;14.70;6.32;;;9.30;80.20;;;;;;4996330;28;20399;-78
2021/11/18 01:20:23;;;;;;;16.50;6.28;;;9.30;80.00;;;;;;4996026;28;20071;-78
2021/11/18 01:22:50;;;;;;;13.57;6.40;;;9.30;80.10;;;;;;4978553;28;20034;-78
2021/11/18 01:25:16;;;;;;;13.35;6.05;;;9.30;80.10;;;;;;4995954;28;20171;-78
2021/11/18 01:27:43;;;;;;;17.80;6.72;;;9.30;80.20;;;;;;4996000;28;20061;-78
2021/11/18 01:30:12;;;;;;;14.35;6.07;;;9.30;80.40;;;;;;4996696;28;20026;-78
2021/11/18 01:32:38;;;;;;;13.13;5.78;;;9.30;80.40;;;;;;4997887;28;20026;-78
2021/11/18 01:35:04;;;;;;;19.70;6.38;;;9.20;80.50;;;;;;5015614;28;20170;-78
2021/11/18 01:37:30;;;;;;;13.30;5.43;;;9.20;80.60;;;;;;4993654;28;20058;-77
2021/11/18 01:39:56;;;;;;;11.90;6.80;;;9.20;80.80;;;;;;4996064;28;20107;-78
2021/11/18 01:42:22;;;;;;;13.88;5.53;;;9.20;80.70;;;;;;4995828;28;20062;-79
2021/11/18 01:44:51;;;;;;;13.50;6.00;;;9.00;81.00;;;;;;4999528;28;20025;-78
2021/11/18 01:47:17;;;;;;;13.65;6.30;;;8.90;81.00;;;;;;5003974;28;20045;-78
2021/11/18 01:49:45;;;;;;;15.82;6.43;;;8.90;81.10;;;;;;4995828;28;20018;-78
2021/11/18 01:52:14;;;;;;;15.90;7.57;;;8.90;80.90;;;;;;4995642;28;20022;-78
2021/11/18 01:54:48;;;;;;;14.63;7.25;;;8.90;80.70;;;;;;4995976;28;20026;-78
2021/11/18 01:57:16;;;;;;;17.48;8.38;;;8.80;80.80;;;;;;4995735;28;20101;-78
2021/11/18 01:59:46;;;;;;;18.52;8.32;;;8.80;80.70;;;;;;4995498;28;20046;-78
2021/11/18 02:02:14;;;;;;;16.77;8.93;;;8.70;80.70;;;;;;4995325;28;20495;-78
2021/11/18 02:04:53;;;;;;;16.17;7.95;;;8.70;80.50;;;;;;4995567;28;20130;-78
2021/11/18 02:07:19;;;;;;;14.27;7.35;;;8.70;80.70;;;;;;4978247;28;20046;-78
2021/11/18 02:09:47;;;;;;;18.08;8.15;;;8.70;80.30;;;;;;4995395;28;20033;-78
2021/11/18 02:12:20;;;;;;;13.82;7.93;;;8.60;80.30;;;;;;4998088;28;20030;-78
2021/11/18 02:14:46;;;;;;;13.73;8.38;;;8.50;80.60;;;;;;4999392;28;20041;-78
2021/11/18 02:17:16;;;;;;;13.10;7.88;;;8.50;80.70;;;;;;4999546;28;20105;-78
2021/11/18 02:19:49;;;;;;;15.55;8.32;;;8.50;80.70;;;;;;4999294;28;20010;-78
2021/11/18 02:22:16;;;;;;;17.30;8.15;;;8.50;80.60;;;;;;5001987;28;20065;-78
2021/11/18 02:24:47;;;;;;;14.68;7.80;;;8.50;80.20;;;;;;5024282;28;20022;-78
2021/11/18 02:27:16;;;;;;;14.85;8.23;;;8.40;80.30;;;;;;5021573;28;20053;-78
2021/11/18 02:29:47;;;;;;;17.88;8.57;;;8.30;80.60;;;;;;5022734;28;20018;-78
2021/11/18 02:32:16;;;;;;;14.07;8.57;;;8.30;80.50;;;;;;5002792;28;20038;-78
2021/11/18 02:34:48;;;;;;;13.07;7.65;;;8.20;80.40;;;;;;4999290;28;20369;-78
2021/11/18 02:37:14;;;;;;;14.05;7.63;;;8.20;80.70;;;;;;4998725;28;20585;-78
2021/11/18 02:39:40;;;;;;;14.50;7.47;;;8.30;80.60;;;;;;4993767;28;20097;-78
2021/11/18 02:42:09;;;;;;;13.13;7.47;;;8.30;80.50;;;;;;5017265;28;20026;-78
2021/11/18 02:44:36;;;;;;;17.73;7.78;;;8.20;80.20;;;;;;5002406;28;20480;-78
2021/11/18 02:47:06;;;;;;;12.20;6.90;;;8.10;80.30;;;;;;5018641;28;20022;-78
2021/11/18 02:49:32;;;;;;;14.90;7.03;;;8.10;80.60;;;;;;5001131;28;20033;-78
2021/11/18 02:52:00;;;;;;;14.43;6.20;;;8.10;80.70;;;;;;4981287;28;20038;-79
2021/11/18 02:54:26;;;;;;;13.77;7.30;;;8.20;80.60;;;;;;4998849;28;20030;-78
2021/11/18 02:56:54;;;;;;;14.65;6.70;;;8.10;80.60;;;;;;4998952;28;20031;-78
2021/11/18 02:59:20;;;;;;;13.57;6.78;;;8.00;80.50;;;;;;4998836;28;20033;-78
2021/11/18 03:01:46;;;;;;;16.05;6.55;;;8.00;80.40;;;;;;4981162;28;20042;-78
2021/11/18 03:04:14;;;;;;;13.60;6.75;;;8.00;80.70;;;;;;4998571;28;20441;-78
2021/11/18 03:06:41;;;;;;;13.02;6.97;;;8.00;80.50;;;;;;4998555;28;20038;-78
2021/11/18 03:09:07;;;;;;;16.52;6.93;;;8.00;80.60;;;;;;4981383;28;20051;-78
2021/11/18 03:11:34;;;;;;;16.70;6.82;;;7.90;80.60;;;;;;4998717;28;20029;-78
2021/11/18 03:14:00;;;;;;;19.77;7.78;;;7.90;80.30;;;;;;4998325;28;20069;-78
2021/11/18 03:16:26;;;;;;;15.85;6.72;;;7.90;80.60;;;;;;4998008;28;20077;-78
2021/11/18 03:18:51;;;;;;;12.52;8.55;;;7.80;79.90;;;;;;4998108;28;20031;-78
2021/11/18 03:21:21;;;;;;;16.10;9.10;;;7.70;80.50;;;;;;4998510;28;20030;-78
2021/11/18 03:23:48;;;;;;;17.98;8.90;;;7.70;80.50;;;;;;4997251;28;20033;-78
2021/11/18 03:26:23;;;;;;;21.75;9.90;;;7.70;80.80;;;;;;4998318;28;20042;-78
2021/11/18 03:28:49;;;;;;;15.43;8.52;;;7.70;80.60;;;;;;4980956;28;20061;-78
2021/11/18 03:31:16;;;;;;;19.48;9.20;;;7.70;80.40;;;;;;4998276;28;20030;-78
2021/11/18 03:33:46;;;;;;;14.90;8.90;;;7.70;80.30;;;;;;4998139;28;20019;-78
2021/11/18 03:36:13;;;;;;;17.85;9.52;;;7.70;80.70;;;;;;4995635;28;20034;-78
2021/11/18 03:38:39;;;;;;;15.18;8.50;;;7.80;80.60;;;;;;4980771;28;20104;-78
2021/11/18 03:41:06;;;;;;;16.63;7.72;;;7.70;80.20;;;;;;4980644;28;20023;-78
2021/11/18 03:43:40;;;;;;;16.20;8.52;;;7.80;80.50;;;;;;4998109;28;20088;-78
2021/11/18 03:46:06;;;;;;;15.48;7.88;;;7.80;80.50;;;;;;5012088;28;20022;-78
2021/11/18 03:48:36;;;;;;;19.10;8.98;;;7.80;80.40;;;;;;5010451;28;20033;-78
2021/11/18 03:51:05;;;;;;;16.50;8.57;;;7.90;80.70;;;;;;4980538;28;20023;-79
2021/11/18 03:53:34;;;;;;;17.60;7.65;;;7.80;80.30;;;;;;4997657;28;20350;-78
2021/11/18 03:56:01;;;;;;;14.82;7.15;;;7.90;80.30;;;;;;4998059;28;20041;-78
2021/11/18 03:58:27;;;;;;;16.42;7.32;;;7.90;79.90;;;;;;4980496;28;20385;-78
2021/11/18 04:00:53;;;;;;;13.20;7.55;;;7.90;80.10;;;;;;4997725;28;20077;-78
2021/11/18 04:03:18;;;;;;;16.70;7.95;;;7.90;80.20;;;;;;4997973;28;20035;-78
2021/11/18 04:05:51;;;;;;;13.70;7.35;;;7.90;80.30;;;;;;4997673;28;20463;-78
2021/11/18 04:08:17;;;;;;;15.43;8.00;;;7.80;80.00;;;;;;4997583;28;20081;-78
2021/11/18 04:10:43;;;;;;;16.95;8.63;;;7.80;80.40;;;;;;4997551;28;20026;-78
2021/11/18 04:13:09;;;;;;;14.77;8.00;;;7.90;80.30;;;;;;4989348;28;20041;-78
2021/11/18 04:15:36;;;;;;;22.27;8.07;;;7.90;80.00;;;;;;4997368;28;20026;-78
2021/11/18 04:18:03;;;;;;;15.85;8.02;;;7.80;80.20;;;;;;5010155;28;20041;-78
2021/11/18 04:20:29;;;;;;;14.77;8.45;;;7.90;80.50;;;;;;4995933;28;20030;-78
2021/11/18 04:22:58;;;;;;;15.10;8.38;;;7.90;80.30;;;;;;4997279;28;20030;-79
2021/11/18 04:25:28;;;;;;;13.75;8.07;;;7.90;80.20;;;;;;4997129;28;20027;-78
2021/11/18 04:27:55;;;;;;;21.75;9.68;;;7.90;80.00;;;;;;4997101;28;20022;-78
2021/11/18 04:30:24;;;;;;;15.05;7.90;;;7.90;80.20;;;;;;4997297;28;20350;-78
2021/11/18 04:32:50;;;;;;;14.43;8.10;;;7.80;80.00;;;;;;4996911;28;20045;-78
2021/11/18 04:35:16;;;;;;;16.27;8.20;;;7.90;80.30;;;;;;4996251;28;20030;-78
2021/11/18 04:37:42;;;;;;;18.88;8.32;;;7.90;80.30;;;;;;4996691;28;20465;-78
2021/11/18 04:40:13;;;;;;;18.38;8.85;;;7.90;80.40;;;;;;4997040;28;20031;-78
2021/11/18 04:42:40;;;;;;;15.65;7.65;;;7.90;80.60;;;;;;4996812;28;20481;-78
2021/11/18 04:45:08;;;;;;;14.18;7.70;;;7.90;80.60;;;;;;4985192;28;20542;-78
2021/11/18 04:47:33;;;;;;;15.68;8.32;;;7.80;80.60;;;;;;5010349;28;20113;-78
2021/11/18 04:49:59;;;;;;;13.60;8.18;;;7.80;80.10;;;;;;4994280;28;20050;-78
2021/11/18 04:52:25;;;;;;;16.88;8.77;;;7.80;80.40;;;;;;4979496;28;20697;-78
2021/11/18 04:54:51;;;;;;;19.88;8.35;;;7.80;80.50;;;;;;4982215;28;20402;-78
2021/11/18 04:57:21;;;;;;;15.02;8.45;;;7.70;81.00;;;;;;4996723;28;20103;-77
2021/11/18 04:59:47;;;;;;;14.95;7.95;;;7.70;80.80;;;;;;4996822;28;20110;-78
2021/11/18 05:02:13;;;;;;;17.77;8.23;;;7.70;81.00;;;;;;4996598;28;20054;-78
2021/11/18 05:04:39;;;;;;;15.40;8.52;;;7.70;81.00;;;;;;4978685;28;20381;-78
2021/11/18 05:07:05;;;;;;;15.02;8.23;;;7.80;80.80;;;;;;4996301;28;20061;-78
2021/11/18 05:09:31;;;;;;;15.88;8.32;;;7.80;80.70;;;;;;4996595;28;20401;-78
2021/11/18 05:11:57;;;;;;;21.88;8.00;;;7.80;80.90;;;;;;4978857;28;20157;-78
2021/11/18 05:14:22;;;;;;;14.30;8.02;;;7.80;80.70;;;;;;4996495;28;20033;-77
2021/11/18 05:16:48;;;;;;;16.42;7.55;;;7.80;80.50;;;;;;4999466;28;20026;-79
2021/11/18 05:19:14;;;;;;;15.32;8.25;;;7.90;80.70;;;;;;5000108;28;20053;-78
2021/11/18 05:21:41;;;;;;;12.48;7.75;;;7.90;80.70;;;;;;4995891;28;20042;-78
2021/11/18 05:24:07;;;;;;;14.05;8.15;;;7.90;81.00;;;;;;4996421;28;20026;-78
2021/11/18 05:26:33;;;;;;;15.10;8.65;;;7.90;80.70;;;;;;4978819;28;20080;-78
2021/11/18 05:28:59;;;;;;;16.33;8.07;;;8.00;81.20;;;;;;4996110;28;20060;-78
2021/11/18 05:31:30;;;;;;;11.93;8.43;;;8.00;81.20;;;;;;4996562;28;20101;-78
2021/11/18 05:33:56;;;;;;;20.88;7.82;;;8.00;81.00;;;;;;4996270;28;20034;-78
2021/11/18 05:36:22;;;;;;;11.85;7.50;;;8.00;81.20;;;;;;4995852;28;20038;-78
2021/11/18 05:38:49;;;;;;;12.75;8.20;;;8.00;80.70;;;;;;4996023;28;20030;-78
2021/11/18 05:41:15;;;;;;;16.70;8.43;;;8.00;80.90;;;;;;4978108;28;20400;-78
2021/11/18 05:43:42;;;;;;;15.02;8.27;;;8.00;80.60;;;;;;4996124;28;20080;-78
2021/11/18 05:46:10;;;;;;;15.85;8.23;;;8.00;80.70;;;;;;5009871;28;20045;-77
2021/11/18 05:48:37;;;;;;;14.27;7.30;;;8.00;80.90;;;;;;5001946;28;20041;-77
2021/11/18 05:51:03;;;;;;;15.77;8.50;;;8.10;80.80;;;;;;4978342;28;20113;-77
2021/11/18 05:56:54;;;;;;;20.48;9.05;;;7.80;81.20;;;;;;5072038;28;20842;-77
2021/11/18 05:59:19;;;;;;;16.45;8.40;;;7.70;81.70;;;;;;5072399;28;20082;-77
2021/11/18 06:01:45;;;;;;;14.80;8.02;;;7.60;82.40;;;;;;5061668;28;20636;-78
2021/11/18 06:04:11;;;;;;;14.65;8.25;;;7.70;82.40;;;;;;5052369;28;20083;-77
2021/11/18 06:06:38;;;;;;;15.93;8.10;;;7.80;81.70;;;;;;5052132;28;20033;-77
2021/11/18 06:09:04;;;;;;;15.63;9.02;;;7.80;81.30;;;;;;5050925;28;20032;-77
2021/11/18 06:11:36;;;;;;;15.10;7.65;;;7.80;81.00;;;;;;5058550;28;20024;-77
2021/11/18 06:14:04;;;;;;;15.15;9.27;;;7.80;81.30;;;;;;5072156;28;20498;-78
2021/11/18 06:16:30;;;;;;;15.95;9.55;;;7.80;81.00;;;;;;5056308;28;20039;-79
2021/11/18 06:18:58;;;;;;;17.30;9.30;;;7.80;81.10;;;;;;5050558;28;20033;-84
2021/11/18 06:21:24;;;;;;;15.73;8.90;;;8.00;81.00;;;;;;5051622;28;20033;-77
2021/11/18 06:23:53;;;;;;;16.63;10.88;;;8.00;80.50;;;;;;5065666;28;20021;-82
2021/11/18 06:26:19;;;;;;;16.77;9.10;;;8.00;80.10;;;;;;5070357;28;20303;-78
2021/11/18 06:28:45;;;;;;;19.00;9.32;;;7.90;80.70;;;;;;5070797;28;20060;-77
2021/11/18 06:31:13;;;;;;;12.98;8.48;;;8.00;80.40;;;;;;5049614;28;20419;-78
2021/11/18 06:33:48;;;;;;;15.27;8.50;;;7.90;80.00;;;;;;5044670;28;20025;-77
2021/11/18 06:36:15;;;;;;;11.82;8.57;;;7.80;80.10;;;;;;5042095;28;20018;-78
2021/11/18 06:38:43;;;;;;;14.38;9.07;;;7.80;80.40;;;;;;5053249;28;20542;-78
2021/11/18 06:41:10;;;;;;;11.70;8.95;;;7.80;80.20;;;;;;5050448;28;20022;-78
2021/11/18 06:43:37;;;;;;;12.57;8.43;;;7.80;80.10;;;;;;5051506;28;20047;-78
2021/11/18 06:46:03;;;;;;;11.95;8.05;;;7.80;80.60;;;;;;5065215;28;20033;-78
2021/11/18 06:48:30;;;;;;;13.95;7.90;;;7.80;80.40;;;;;;5071007;28;20036;-77
2021/11/18 06:51:05;;;;;;;18.55;9.38;;;7.80;80.50;;;;;;5069645;28;20021;-77
2021/11/18 06:53:31;;;;;;;13.88;8.52;;;7.90;80.30;;;;;;5054461;28;20481;-78
2021/11/18 06:55:57;;;;;;;14.15;7.70;;;7.90;79.90;;;;;;5049310;28;20060;-78
2021/11/18 06:58:23;;;;;;;10.27;7.15;;;7.80;79.90;;;;;;5070514;28;20504;-78
2021/11/18 07:00:48;;;;;;;13.05;8.23;;;7.70;80.30;;;;;;5071112;28;20033;-78
2021/11/18 07:03:14;;;;;;;14.02;8.02;;;7.80;79.90;;;;;;5071044;28;20104;-78
2021/11/18 07:05:40;;;;;;;12.13;8.35;;;7.70;79.70;;;;;;5070480;28;20084;-78
2021/11/18 07:08:08;;;;;;;12.45;8.32;;;7.70;79.40;;;;;;5057090;28;20510;-77
2021/11/18 07:10:35;;;;;;;18.67;11.35;;;7.70;79.40;;;;;;5039815;28;20464;-78
2021/11/18 07:13:01;;;;;;;19.20;10.45;;;7.60;79.90;;;;;;5037591;28;20033;-78
2021/11/18 07:15:27;;;;;;;21.58;11.15;;;7.70;79.60;;;;;;5036311;28;20013;-78
2021/11/18 07:17:55;;;;;;;24.42;12.07;;;7.70;79.60;;;;;;5037403;28;20076;-78
2021/11/18 07:20:21;;;;;;;15.35;8.90;;;7.70;79.70;;;;;;5037512;28;20041;-78
2021/11/18 07:22:47;;;;;;;12.65;9.63;;;7.70;79.40;;;;;;5037337;28;20033;-78
2021/11/18 07:25:17;;;;;;;15.85;9.18;;;7.70;79.60;;;;;;5037129;28;20060;-77
2021/11/18 07:27:43;;;;;;;12.43;7.13;;;7.60;79.60;;;;;;5037517;28;20039;-77
2021/11/18 07:30:10;;;;;;;11.68;6.80;;;7.60;79.70;;;;;;5053597;28;20112;-78
2021/11/18 07:32:36;;;;;;;13.52;7.57;;;7.50;79.40;;;;;;5057198;28;20091;-78
2021/11/18 07:35:02;;;;;;;12.00;7.53;;;7.50;79.20;;;;;;5055664;28;20025;-77
2021/11/18 07:37:28;;;;;;;12.95;7.35;;;7.40;79.20;;;;;;5057005;28;20065;-78
2021/11/18 07:39:54;;;;;;;12.02;7.22;;;7.40;79.80;;;;;;5051250;28;20032;-78
2021/11/18 07:42:19;;;;;;;17.33;7.18;;;7.50;79.30;;;;;;5036834;28;20029;-78
2021/11/18 07:44:45;;;;;;;15.20;8.27;;;7.40;79.10;;;;;;5040150;28;20029;-77
2021/11/18 07:47:11;;;;;;;16.67;8.07;;;7.30;79.20;;;;;;5057031;28;20017;-78
2021/11/18 07:49:37;;;;;;;13.73;8.10;;;7.30;79.40;;;;;;5055472;28;20524;-78
2021/11/18 07:52:02;;;;;;;17.42;9.88;;;7.40;79.60;;;;;;5056616;28;20052;-78
2021/11/18 07:54:28;;;;;;;15.05;9.20;;;7.40;79.60;;;;;;5056592;28;20028;-78
2021/11/18 07:56:54;;;;;;;19.50;11.35;;;7.40;79.50;;;;;;5053840;28;20028;-78
2021/11/18 07:59:22;;;;;;;16.17;10.80;;;7.40;79.30;;;;;;5035374;28;20030;-78
2021/11/18 08:01:48;;;;;;;24.52;13.48;;;7.40;79.50;;;;;;5035046;28;20049;-78
2021/11/18 08:04:14;;;;;;;20.90;12.05;;;7.60;79.50;;;;;;5046511;28;20372;-78
2021/11/18 08:06:40;;;;;;;17.48;11.10;;;7.70;79.20;;;;;;5055128;28;20028;-78
2021/11/18 08:09:12;;;;;;;19.67;10.20;;;7.70;78.70;;;;;;5040148;28;20059;-78
2021/11/18 08:11:46;;;;;;;19.42;11.45;;;7.50;79.70;;;;;;5035200;28;20041;-78
2021/11/18 08:14:14;;;;;;;17.52;10.15;;;7.60;79.20;;;;;;5049205;28;20426;-78
2021/11/18 08:16:41;;;;;;;20.08;13.50;;;7.70;78.90;;;;;;5036417;28;20403;-78
2021/11/18 08:19:07;;;;;;;25.90;16.00;;;7.80;79.10;;;;;;5035174;28;20033;-78
2021/11/18 08:21:34;;;;;;;20.83;13.93;;;7.90;78.90;;;;;;5047343;28;20082;-78
2021/11/18 08:24:01;;;;;;;17.00;11.32;;;7.90;78.60;;;;;;5056192;28;20035;-78
2021/11/18 08:26:27;;;;;;;18.08;10.82;;;8.00;78.40;;;;;;5048186;28;20025;-78
2021/11/18 08:28:53;;;;;;;24.95;11.77;;;7.90;78.00;;;;;;5036316;28;20025;-78
2021/11/18 08:31:19;;;;;;;17.77;11.10;;;8.00;78.30;;;;;;5051824;28;20025;-78
2021/11/18 08:33:46;;;;;;;21.27;10.65;;;8.20;78.20;;;;;;5054358;28;20025;-78
2021/11/18 08:36:11;;;;;;;18.73;11.20;;;8.20;78.40;;;;;;5054405;28;20029;-78
2021/11/18 08:38:38;;;;;;;19.85;12.52;;;8.20;78.30;;;;;;5055780;28;20058;-78
2021/11/18 08:41:07;;;;;;;24.73;13.65;;;8.30;78.30;;;;;;5054362;28;20358;-78
2021/11/18 08:43:37;;;;;;;19.75;13.25;;;8.30;78.10;;;;;;5050156;28;20082;-78
2021/11/18 08:46:05;;;;;;;22.73;15.73;;;8.40;78.30;;;;;;5055878;28;20025;-78
2021/11/18 08:48:31;;;;;;;25.10;14.70;;;8.40;78.20;;;;;;5054190;28;20048;-78
2021/11/18 08:50:58;;;;;;;24.05;14.65;;;8.40;78.20;;;;;;5054736;28;20025;-78
2021/11/18 08:53:27;;;;;;;16.50;13.05;;;8.50;78.20;;;;;;5055467;28;20113;-79
2021/11/18 08:55:53;;;;;;;17.00;12.40;;;8.50;78.30;;;;;;5055301;28;20053;-78
2021/11/18 08:58:23;;;;;;;26.63;14.10;;;8.60;78.30;;;;;;5038855;28;20037;-78
2021/11/18 09:00:57;;;;;;;16.08;12.63;;;8.70;78.30;;;;;;5035777;28;20487;-78
2021/11/18 09:03:27;;;;;;;23.95;13.60;;;8.70;78.60;;;;;;5042579;28;20037;-78
2021/11/18 09:05:53;;;;;;;25.80;14.85;;;8.70;78.70;;;;;;5030263;28;20034;-78
2021/11/18 09:08:20;;;;;;;25.10;14.05;;;8.80;78.60;;;;;;5015460;28;20026;-78
2021/11/18 09:10:47;;;;;;;22.48;14.52;;;8.80;79.00;;;;;;5015712;28;20026;-79
2021/11/18 09:13:13;;;;;;;19.70;13.85;;;8.90;79.20;;;;;;5021807;28;20103;-78
2021/11/18 09:15:39;;;;;;;20.02;13.75;;;9.10;78.90;;;;;;5035224;28;20029;-78
2021/11/18 09:18:08;;;;;;;20.55;13.75;;;9.20;78.30;;;;;;5035264;28;20029;-78
2021/11/18 09:20:35;;;;;;;24.40;13.70;;;9.30;78.40;;;;;;5035304;28;20087;-78
2021/11/18 09:23:02;;;;;;;26.23;14.77;;;9.30;78.50;;;;;;5047966;28;20055;-79
2021/11/18 09:25:30;;;;;;;27.67;14.73;;;9.40;78.60;;;;;;5055200;28;20060;-78
2021/11/18 09:27:57;;;;;;;21.02;14.52;;;9.40;78.50;;;;;;5055102;28;20022;-78
2021/11/18 09:30:44;;;;;;;22.58;15.40;;;9.50;79.10;;;;;;5051143;28;20029;-79
2021/11/18 09:33:10;;;;;;;18.15;13.20;;;9.60;78.40;;;;;;5034800;28;20021;-78
2021/11/18 09:35:41;;;;;;;18.42;12.98;;;9.60;78.60;;;;;;5035130;28;20026;-78
2021/11/18 09:38:08;;;;;;;20.60;14.20;;;9.70;78.80;;;;;;5034889;28;20029;-78
2021/11/18 09:40:50;;;;;;;28.67;14.43;;;9.70;78.90;;;;;;5035156;28;20036;-78
2021/11/18 09:43:34;;;;;;;23.23;14.85;;;9.80;79.00;;;;;;5037688;28;20044;-78
2021/11/18 09:46:33;;;;;;;18.65;13.48;;;10.00;78.60;;;;;;5046345;28;20087;-78
2021/11/18 09:48:59;;;;;;;22.60;13.15;;;10.10;79.00;;;;;;5015137;28;20037;-79
2021/11/18 09:51:49;;;;;;;29.23;14.80;;;10.20;79.30;;;;;;5014999;28;20484;-78
2021/11/18 09:54:44;;;;;;;29.43;14.73;;;10.20;79.30;;;;;;5044850;28;20048;-78
2021/11/18 09:57:48;;;;;;;25.92;13.75;;;10.30;79.00;;;;;;5054726;28;20041;-78
2021/11/18 10:00:35;;;;;;;21.23;14.25;;;10.50;78.30;;;;;;5054846;28;20025;-79
2021/11/18 10:03:28;;;;;;;25.90;14.18;;;10.60;77.80;;;;;;5035173;28;20022;-78
2021/11/18 10:06:09;;;;;;;27.67;14.95;;;10.70;78.20;;;;;;5034138;28;20029;-78
2021/11/18 10:08:47;;;;;;;25.33;14.50;;;10.80;78.00;;;;;;5015000;28;20029;-79
2021/11/18 10:11:22;;;;;;;24.83;14.48;;;10.90;78.20;;;;;;5014895;28;20045;-78
2021/11/18 10:14:10;;;;;;;20.17;12.63;;;11.00;78.10;;;;;;5016501;28;20357;-78
2021/11/18 10:16:45;;;;;;;23.75;13.45;;;11.00;78.70;;;;;;5034848;28;20843;-78
2021/11/18 10:19:18;;;;;;;20.85;12.25;;;11.00;78.60;;;;;;5034375;28;20101;-78
2021/11/18 10:21:45;;;;;;;18.35;12.50;;;11.10;78.50;;;;;;5014876;28;20038;-78
2021/11/18 10:24:19;;;;;;;18.55;12.45;;;11.20;78.00;;;;;;5014683;28;20033;-78
2021/11/18 10:26:55;;;;;;;22.95;11.80;;;11.30;78.30;;;;;;5014812;28;20065;-78
2021/11/18 10:29:26;;;;;;;28.48;12.45;;;11.30;78.30;;;;;;5031322;28;20017;-79
2021/11/18 10:31:57;;;;;;;19.80;10.70;;;11.50;78.10;;;;;;5054443;28;20037;-79
2021/11/18 10:34:41;;;;;;;17.67;10.27;;;11.60;77.90;;;;;;5054351;28;20024;-79
2021/11/18 10:37:14;;;;;;;20.33;10.40;;;11.70;78.00;;;;;;5052742;28;20033;-78
2021/11/18 10:39:53;;;;;;;16.20;9.43;;;11.80;77.90;;;;;;5054251;28;20122;-78
2021/11/18 10:42:19;;;;;;;15.70;9.00;;;11.90;77.70;;;;;;5056019;28;20039;-79
2021/11/18 10:45:05;;;;;;;21.17;10.02;;;12.00;77.30;;;;;;5044270;28;20456;-78
2021/11/18 10:47:39;;;;;;;12.50;7.47;;;12.00;77.00;;;;;;5038985;28;20521;-79
2021/11/18 10:50:34;;;;;;;14.23;8.68;;;12.10;76.20;;;;;;5038039;28;20101;-79
2021/11/18 10:53:08;;;;;;;13.93;7.82;;;12.10;76.80;;;;;;5037798;28;20024;-79
2021/11/18 10:55:40;;;;;;;13.18;8.05;;;12.10;76.80;;;;;;5037853;28;20168;-79
2021/11/18 10:58:28;;;;;;;18.15;7.60;;;12.20;76.80;;;;;;5037863;28;20030;-79
2021/11/18 11:01:14;;;;;;;16.70;7.55;;;12.20;76.10;;;;;;5038125;28;20032;-78
2021/11/18 11:03:43;;;;;;;14.02;8.07;;;12.10;76.20;;;;;;5031549;28;20522;-79
2021/11/18 11:06:29;;;;;;;21.42;8.48;;;12.10;76.20;;;;;;5037285;28;20033;-79
2021/11/18 11:09:13;;;;;;;13.05;8.43;;;12.10;76.20;;;;;;5037709;28;20037;-79
2021/11/18 11:12:06;;;;;;;14.85;8.90;;;12.10;75.90;;;;;;5045541;28;20017;-79
2021/11/18 11:14:52;;;;;;;15.52;8.18;;;12.10;75.70;;;;;;5057611;28;20021;-79
2021/11/18 11:17:42;;;;;;;16.95;6.28;;;12.00;75.80;;;;;;5057549;28;20029;-79
2021/11/18 11:20:38;;;;;;;18.02;7.72;;;12.00;74.90;;;;;;5046799;28;20072;-79
2021/11/18 11:23:13;;;;;;;13.55;6.85;;;12.10;75.50;;;;;;5040913;28;20082;-79
2021/11/18 11:25:48;;;;;;;15.82;7.60;;;12.30;75.10;;;;;;5057054;28;20426;-79
2021/11/18 11:28:27;;;;;;;19.92;8.13;;;12.40;75.00;;;;;;5057382;28;20096;-79
2021/11/18 11:31:30;;;;;;;18.83;7.80;;;12.50;74.90;;;;;;5057322;28;20013;-79
2021/11/18 11:33:56;;;;;;;15.40;6.22;;;12.70;73.90;;;;;;5055672;28;20238;-79
2021/11/18 11:36:37;;;;;;;11.60;6.75;;;12.70;73.30;;;;;;5056989;28;20397;-79
2021/11/18 11:39:24;;;;;;;14.63;6.50;;;12.80;73.00;;;;;;5053525;28;20044;-78
2021/11/18 11:42:25;;;;;;;18.95;6.93;;;12.80;72.00;;;;;;5036505;28;20030;-78
2021/11/18 11:45:19;;;;;;;16.45;6.05;;;12.90;72.40;;;;;;5039373;28;20036;-79
2021/11/18 11:48:27;;;;;;;11.82;6.32;;;13.00;73.20;;;;;;5057155;28;20104;-79
2021/11/18 11:51:11;;;;;;;16.60;6.05;;;13.10;72.00;;;;;;5057209;28;20060;-79
2021/11/18 11:53:46;;;;;;;12.75;5.88;;;13.20;70.40;;;;;;5056915;28;20847;-79
2021/11/18 11:56:34;;;;;;;16.52;4.90;;;13.20;70.50;;;;;;5041362;28;20056;-79
2021/11/18 11:59:08;;;;;;;19.00;6.15;;;13.20;69.00;;;;;;5043167;28;20016;-79
2021/11/18 12:01:37;;;;;;;21.63;4.97;;;13.20;69.30;;;;;;5056505;28;20028;-79
2021/11/18 12:04:14;;;;;;;16.92;5.60;;;13.30;68.80;;;;;;5039402;28;20075;-79
2021/11/18 12:07:14;;;;;;;8.00;3.60;;;13.30;67.50;;;;;;5016628;28;20096;-79
2021/11/18 12:09:49;;;;;;;7.82;3.25;;;13.30;66.80;;;;;;5016281;28;20109;-79
2021/11/18 12:12:35;;;;;;;16.77;4.03;;;13.40;66.50;;;;;;5016624;28;20032;-79
2021/11/18 12:15:09;;;;;;;10.30;4.65;;;13.30;66.60;;;;;;5043148;28;20032;-79
2021/11/18 12:17:50;;;;;;;10.02;3.78;;;13.30;67.60;;;;;;5056448;28;20032;-79
2021/11/18 12:20:23;;;;;;;16.25;5.90;;;13.30;66.60;;;;;;5038946;28;20029;-79
2021/11/18 12:23:00;;;;;;;11.50;4.68;;;13.20;67.30;;;;;;5036361;28;20109;-79
2021/11/18 12:25:31;;;;;;;15.73;3.55;;;13.30;67.20;;;;;;5036461;28;20022;-79
2021/11/18 12:28:03;;;;;;;10.75;3.75;;;13.30;66.50;;;;;;5047887;28;20090;-79
2021/11/18 12:31:05;;;;;;;15.05;3.88;;;13.30;68.20;;;;;;5056112;28;20021;-79
2021/11/18 12:33:46;;;;;;;10.05;4.03;;;13.30;67.80;;;;;;5016731;28;20582;-79
2021/11/18 12:36:35;;;;;;;13.02;3.42;;;13.40;67.70;;;;;;5020859;28;20033;-79
2021/11/18 12:39:22;;;;;;;10.77;4.07;;;13.40;67.30;;;;;;5035642;28;20120;-79
2021/11/18 12:42:16;;;;;;;12.15;4.03;;;13.40;66.90;;;;;;5043079;28;20104;-79
2021/11/18 12:45:00;;;;;;;16.50;3.85;;;13.40;66.80;;;;;;5041999;28;20036;-79
2021/11/18 12:47:41;;;;;;;14.70;3.60;;;13.40;65.80;;;;;;5054289;28;20612;-79
2021/11/18 12:50:44;;;;;;;14.48;4.05;;;13.50;66.40;;;;;;5055932;28;20049;-79
2021/11/18 12:53:10;;;;;;;14.23;4.13;;;13.50;66.80;;;;;;5037192;28;20040;-79
2021/11/18 12:55:45;;;;;;;17.08;5.22;;;13.50;67.50;;;;;;5046255;28;20054;-79
2021/11/18 12:58:25;;;;;;;12.15;4.10;;;13.50;67.40;;;;;;5035252;28;20075;-79
2021/11/18 13:00:55;;;;;;;14.18;3.70;;;13.50;67.10;;;;;;5035730;28;20396;-79
2021/11/18 13:03:46;;;;;;;7.60;3.28;;;13.50;67.30;;;;;;5036324;28;20509;-79
2021/11/18 13:06:31;;;;;;;13.90;3.38;;;13.60;66.80;;;;;;5053332;28;20029;-79